sensor_id;sensor_type;location;lat;lon;timestamp;pressure;altitude;pressure_sealevel;temperature;humidity
38900;BME280;24660;43.238;26.576;2023-01-28T00:01:11;98821.78;;;0.54;100.00
38900;BME280;24660;43.238;26.576;2023-01-28T00:03:37;98816.16;;;0.45;100.00
38900;BME280;24660;43.238;26.576;2023-01-28T00:06:04;98817.78;;;0.30;100.00
38900;BME280;24660;43.238;26.576;2023-01-28T00:08:30;98824.88;;;0.28;100.00
38900;BME280;24660;43.238;26.576;2023-01-28T00:10:59;98822.03;;;0.33;100.00
38900;BME280;24660;43.238;26.576;2023-01-28T00:13:25;98818.25;;;0.38;100.00
38900;BME280;24660;43.238;26.576;2023-01-28T00:15:54;98821.88;;;0.53;100.00
38900;BME280;24660;43.238;26.576;2023-01-28T00:18:19;98828.06;;;0.52;100.00
38900;BME280;24660;43.238;26.576;2023-01-28T00:20:54;98829.41;;;0.61;100.00
38900;BME280;24660;43.238;26.576;2023-01-28T00:23:19;98834.19;;;0.52;100.00
38900;BME280;24660;43.238;26.576;2023-01-28T00:25:44;98835.78;;;0.38;100.00
38900;BME280;24660;43.238;26.576;2023-01-28T00:28:10;98840.16;;;0.20;100.00
38900;BME280;24660;43.238;26.576;2023-01-28T00:30:35;98848.53;;;0.28;100.00
38900;BME280;24660;43.238;26.576;2023-01-28T00:33:01;98850.97;;;0.14;100.00
38900;BME280;24660;43.238;26.576;2023-01-28T00:35:26;98870.13;;;0.52;100.00
38900;BME280;24660;43.238;26.576;2023-01-28T00:37:51;98866.41;;;0.56;100.00
38900;BME280;24660;43.238;26.576;2023-01-28T00:40:16;98862.13;;;0.19;100.00
38900;BME280;24660;43.238;26.576;2023-01-28T00:42:42;98866.38;;;0.21;100.00
38900;BME280;24660;43.238;26.576;2023-01-28T00:45:07;98872.22;;;0.45;100.00
38900;BME280;24660;43.238;26.576;2023-01-28T00:47:33;98865.41;;;0.41;100.00
38900;BME280;24660;43.238;26.576;2023-01-28T00:49:58;98864.88;;;0.35;100.00
38900;BME280;24660;43.238;26.576;2023-01-28T00:52:23;98863.75;;;0.57;100.00
38900;BME280;24660;43.238;26.576;2023-01-28T00:54:48;98868.28;;;0.54;100.00
38900;BME280;24660;43.238;26.576;2023-01-28T00:57:14;98866.31;;;0.40;100.00
38900;BME280;24660;43.238;26.576;2023-01-28T00:59:39;98868.06;;;0.22;100.00
38900;BME280;24660;43.238;26.576;2023-01-28T01:02:04;98869.03;;;0.03;100.00
38900;BME280;24660;43.238;26.576;2023-01-28T01:04:36;98869.53;;;-0.08;100.00
38900;BME280;24660;43.238;26.576;2023-01-28T01:07:01;98873.38;;;0.40;100.00
38900;BME280;24660;43.238;26.576;2023-01-28T01:09:26;98878.56;;;0.05;100.00
38900;BME280;24660;43.238;26.576;2023-01-28T01:11:52;98877.56;;;0.44;100.00
38900;BME280;24660;43.238;26.576;2023-01-28T01:14:17;98870.78;;;0.57;100.00
38900;BME280;24660;43.238;26.576;2023-01-28T01:16:42;98872.94;;;0.49;100.00
38900;BME280;24660;43.238;26.576;2023-01-28T01:19:07;98880.91;;;0.65;100.00
38900;BME280;24660;43.238;26.576;2023-01-28T01:21:33;98879.66;;;0.54;100.00
38900;BME280;24660;43.238;26.576;2023-01-28T01:23:58;98872.31;;;0.44;100.00
38900;BME280;24660;43.238;26.576;2023-01-28T01:26:23;98874.38;;;0.37;100.00
38900;BME280;24660;43.238;26.576;2023-01-28T01:28:51;98878.66;;;0.57;100.00
38900;BME280;24660;43.238;26.576;2023-01-28T01:31:17;98864.34;;;0.45;100.00
38900;BME280;24660;43.238;26.576;2023-01-28T01:33:43;98871.75;;;0.54;100.00
38900;BME280;24660;43.238;26.576;2023-01-28T01:36:09;98877.00;;;0.37;100.00
38900;BME280;24660;43.238;26.576;2023-01-28T01:38:35;98883.22;;;0.53;100.00
38900;BME280;24660;43.238;26.576;2023-01-28T01:41:01;98877.56;;;0.44;100.00
38900;BME280;24660;43.238;26.576;2023-01-28T01:46:07;98888.38;;;0.55;100.00
38900;BME280;24660;43.238;26.576;2023-01-28T01:48:33;98884.38;;;0.65;100.00
38900;BME280;24660;43.238;26.576;2023-01-28T01:51:02;98886.59;;;0.55;100.00
38900;BME280;24660;43.238;26.576;2023-01-28T01:53:28;98884.91;;;0.54;100.00
38900;BME280;24660;43.238;26.576;2023-01-28T01:55:56;98885.75;;;0.55;100.00
38900;BME280;24660;43.238;26.576;2023-01-28T01:58:24;98887.00;;;0.48;100.00
38900;BME280;24660;43.238;26.576;2023-01-28T02:00:53;98894.09;;;0.28;100.00
38900;BME280;24660;43.238;26.576;2023-01-28T02:03:20;98883.09;;;0.38;100.00
38900;BME280;24660;43.238;26.576;2023-01-28T02:05:48;98898.56;;;0.08;100.00
38900;BME280;24660;43.238;26.576;2023-01-28T02:08:14;98906.56;;;0.23;100.00
38900;BME280;24660;43.238;26.576;2023-01-28T02:10:52;98897.56;;;0.29;100.00
38900;BME280;24660;43.238;26.576;2023-01-28T02:13:18;98906.56;;;0.23;100.00
38900;BME280;24660;43.238;26.576;2023-01-28T02:15:46;98910.34;;;0.18;100.00
38900;BME280;24660;43.238;26.576;2023-01-28T02:18:12;98906.03;;;0.17;100.00
38900;BME280;24660;43.238;26.576;2023-01-28T02:28:26;98927.91;;;0.17;100.00
38900;BME280;24660;43.238;26.576;2023-01-28T02:30:57;98936.63;;;0.18;100.00
38900;BME280;24660;43.238;26.576;2023-01-28T02:33:36;98935.69;;;0.38;100.00
38900;BME280;24660;43.238;26.576;2023-01-28T02:36:08;98936.91;;;0.31;100.00
38900;BME280;24660;43.238;26.576;2023-01-28T02:38:38;98945.66;;;0.31;100.00
38900;BME280;24660;43.238;26.576;2023-01-28T02:41:07;98945.34;;;0.37;100.00
38900;BME280;24660;43.238;26.576;2023-01-28T02:43:43;98949.69;;;0.38;100.00
38900;BME280;24660;43.238;26.576;2023-01-28T02:46:18;98950.19;;;0.46;100.00
38900;BME280;24660;43.238;26.576;2023-01-28T02:49:00;98954.94;;;0.38;100.00
38900;BME280;24660;43.238;26.576;2023-01-28T02:51:33;98950.56;;;0.20;100.00
38900;BME280;24660;43.238;26.576;2023-01-28T02:54:03;98942.25;;;0.29;100.00
38900;BME280;24660;43.238;26.576;2023-01-28T02:56:40;98946.78;;;0.25;100.00
38900;BME280;24660;43.238;26.576;2023-01-28T03:01:49;98955.50;;;0.26;100.00
38900;BME280;24660;43.238;26.576;2023-01-28T03:04:24;98951.19;;;0.25;100.00
38900;BME280;24660;43.238;26.576;2023-01-28T03:06:53;98948.00;;;0.18;100.00
38900;BME280;24660;43.238;26.576;2023-01-28T03:09:20;98950.47;;;0.21;100.00
38900;BME280;24660;43.238;26.576;2023-01-28T03:11:49;98947.84;;;0.21;100.00
38900;BME280;24660;43.238;26.576;2023-01-28T03:14:30;98939.63;;;0.29;100.00
38900;BME280;24660;43.238;26.576;2023-01-28T03:17:14;98950.88;;;-0.25;100.00
38900;BME280;24660;43.238;26.576;2023-01-28T03:19:56;98952.47;;;-0.03;100.00
38900;BME280;24660;43.238;26.576;2023-01-28T03:22:37;98946.78;;;0.07;100.00
38900;BME280;24660;43.238;26.576;2023-01-28T03:25:19;98941.97;;;0.16;100.00
38900;BME280;24660;43.238;26.576;2023-01-28T03:28:02;98949.91;;;-0.04;100.00
38900;BME280;24660;43.238;26.576;2023-01-28T03:30:47;98956.94;;;-0.05;100.00
38900;BME280;24660;43.238;26.576;2023-01-28T03:33:29;98949.56;;;0.04;100.00
38900;BME280;24660;43.238;26.576;2023-01-28T03:36:11;98954.44;;;-0.08;100.00
38900;BME280;24660;43.238;26.576;2023-01-28T03:38:52;98957.44;;;0.04;100.00
38900;BME280;24660;43.238;26.576;2023-01-28T03:41:19;98957.22;;;-0.11;100.00
38900;BME280;24660;43.238;26.576;2023-01-28T03:43:45;98956.56;;;-0.16;100.00
38900;BME280;24660;43.238;26.576;2023-01-28T03:46:11;98951.03;;;0.09;100.00
38900;BME280;24660;43.238;26.576;2023-01-28T03:48:36;98949.97;;;-0.06;100.00
38900;BME280;24660;43.238;26.576;2023-01-28T03:51:02;98959.50;;;0.16;100.00
38900;BME280;24660;43.238;26.576;2023-01-28T03:53:27;98947.31;;;0.15;100.00
38900;BME280;24660;43.238;26.576;2023-01-28T03:55:53;98949.94;;;0.15;100.00
38900;BME280;24660;43.238;26.576;2023-01-28T03:58:18;98954.69;;;-0.12;100.00
38900;BME280;24660;43.238;26.576;2023-01-28T04:00:44;98967.25;;;0.19;100.00
38900;BME280;24660;43.238;26.576;2023-01-28T04:03:10;98964.56;;;0.02;100.00
38900;BME280;24660;43.238;26.576;2023-01-28T04:08:21;98973.22;;;0.22;100.00
38900;BME280;24660;43.238;26.576;2023-01-28T04:10:46;98970.72;;;-0.39;100.00
38900;BME280;24660;43.238;26.576;2023-01-28T04:13:12;98977.16;;;-0.07;100.00
38900;BME280;24660;43.238;26.576;2023-01-28T04:15:37;98978.16;;;-0.09;100.00
38900;BME280;24660;43.238;26.576;2023-01-28T04:18:02;98980.72;;;-0.08;100.00
38900;BME280;24660;43.238;26.576;2023-01-28T04:20:28;98972.63;;;-0.03;100.00
38900;BME280;24660;43.238;26.576;2023-01-28T04:22:53;98978.25;;;0.08;100.00
38900;BME280;24660;43.238;26.576;2023-01-28T04:25:18;98978.63;;;0.01;100.00
38900;BME280;24660;43.238;26.576;2023-01-28T04:27:44;98983.91;;;-0.01;100.00
38900;BME280;24660;43.238;26.576;2023-01-28T04:30:09;98979.31;;;0.04;100.00
38900;BME280;24660;43.238;26.576;2023-01-28T04:32:34;98991.16;;;-0.06;100.00
38900;BME280;24660;43.238;26.576;2023-01-28T04:35:00;98997.50;;;0.09;100.00
38900;BME280;24660;43.238;26.576;2023-01-28T04:37:25;98987.06;;;0.07;100.00
38900;BME280;24660;43.238;26.576;2023-01-28T04:39:50;98996.72;;;0.07;100.00
38900;BME280;24660;43.238;26.576;2023-01-28T04:42:15;98997.13;;;-0.03;100.00
38900;BME280;24660;43.238;26.576;2023-01-28T04:44:41;98998.81;;;-0.02;100.00
38900;BME280;24660;43.238;26.576;2023-01-28T04:47:06;99005.28;;;-0.09;100.00
38900;BME280;24660;43.238;26.576;2023-01-28T04:49:31;99010.16;;;0.01;100.00
38900;BME280;24660;43.238;26.576;2023-01-28T04:51:57;99009.22;;;0.02;100.00
38900;BME280;24660;43.238;26.576;2023-01-28T04:54:22;99012.25;;;-0.08;100.00
38900;BME280;24660;43.238;26.576;2023-01-28T04:56:47;99019.41;;;-0.11;100.00
38900;BME280;24660;43.238;26.576;2023-01-28T04:59:13;99016.47;;;-0.24;100.00
38900;BME280;24660;43.238;26.576;2023-01-28T05:01:38;99019.53;;;-0.14;100.00
38900;BME280;24660;43.238;26.576;2023-01-28T05:04:03;99036.75;;;-0.07;100.00
38900;BME280;24660;43.238;26.576;2023-01-28T05:06:30;99032.16;;;-0.22;100.00
38900;BME280;24660;43.238;26.576;2023-01-28T05:08:55;99037.81;;;-0.11;100.00
38900;BME280;24660;43.238;26.576;2023-01-28T05:11:21;99038.53;;;-0.08;100.00
38900;BME280;24660;43.238;26.576;2023-01-28T05:13:46;99039.38;;;-0.07;100.00
38900;BME280;24660;43.238;26.576;2023-01-28T05:16:11;99045.47;;;-0.07;100.00
38900;BME280;24660;43.238;26.576;2023-01-28T05:18:36;99053.44;;;-0.08;100.00
38900;BME280;24660;43.238;26.576;2023-01-28T05:21:02;99052.78;;;-0.13;100.00
38900;BME280;24660;43.238;26.576;2023-01-28T05:23:27;99054.13;;;-0.05;100.00
38900;BME280;24660;43.238;26.576;2023-01-28T05:25:52;99053.56;;;-0.11;100.00
38900;BME280;24660;43.238;26.576;2023-01-28T05:28:18;99054.53;;;0.07;100.00
38900;BME280;24660;43.238;26.576;2023-01-28T05:30:43;99055.03;;;0.15;100.00
38900;BME280;24660;43.238;26.576;2023-01-28T05:33:08;99061.63;;;0.05;100.00
38900;BME280;24660;43.238;26.576;2023-01-28T05:35:34;99063.41;;;0.04;100.00
38900;BME280;24660;43.238;26.576;2023-01-28T05:38:00;99071.22;;;0.06;100.00
38900;BME280;24660;43.238;26.576;2023-01-28T05:40:25;99071.47;;;-0.01;100.00
38900;BME280;24660;43.238;26.576;2023-01-28T05:42:51;99067.41;;;-0.08;100.00
38900;BME280;24660;43.238;26.576;2023-01-28T05:45:16;99075.25;;;-0.26;100.00
38900;BME280;24660;43.238;26.576;2023-01-28T05:47:41;99076.75;;;-0.21;100.00
38900;BME280;24660;43.238;26.576;2023-01-28T05:50:07;99080.16;;;-0.19;100.00
38900;BME280;24660;43.238;26.576;2023-01-28T05:52:32;99092.50;;;-0.21;100.00
38900;BME280;24660;43.238;26.576;2023-01-28T05:54:57;99089.16;;;-0.24;100.00
38900;BME280;24660;43.238;26.576;2023-01-28T05:57:23;99093.44;;;-0.42;100.00
38900;BME280;24660;43.238;26.576;2023-01-28T05:59:48;99100.41;;;-0.43;100.00
38900;BME280;24660;43.238;26.576;2023-01-28T06:02:13;99103.00;;;-0.41;100.00
38900;BME280;24660;43.238;26.576;2023-01-28T06:04:38;99109.63;;;-0.75;100.00
38900;BME280;24660;43.238;26.576;2023-01-28T06:07:04;99116.41;;;-0.27;100.00
38900;BME280;24660;43.238;26.576;2023-01-28T06:09:29;99117.97;;;-0.23;100.00
38900;BME280;24660;43.238;26.576;2023-01-28T06:11:54;99120.41;;;-0.18;100.00
38900;BME280;24660;43.238;26.576;2023-01-28T06:14:20;99123.72;;;-0.55;100.00
38900;BME280;24660;43.238;26.576;2023-01-28T06:16:45;99132.84;;;-0.44;100.00
38900;BME280;24660;43.238;26.576;2023-01-28T06:19:10;99128.69;;;-0.07;100.00
38900;BME280;24660;43.238;26.576;2023-01-28T06:21:36;99124.03;;;-0.21;100.00
38900;BME280;24660;43.238;26.576;2023-01-28T06:24:01;99131.53;;;-0.12;100.00
38900;BME280;24660;43.238;26.576;2023-01-28T06:26:26;99132.88;;;-0.03;100.00
38900;BME280;24660;43.238;26.576;2023-01-28T06:28:51;99128.91;;;-0.12;100.00
38900;BME280;24660;43.238;26.576;2023-01-28T06:31:17;99137.81;;;0.05;100.00
38900;BME280;24660;43.238;26.576;2023-01-28T06:33:43;99141.75;;;0.35;100.00
38900;BME280;24660;43.238;26.576;2023-01-28T06:36:08;99137.34;;;0.36;100.00
38900;BME280;24660;43.238;26.576;2023-01-28T06:38:34;99137.94;;;0.22;100.00
38900;BME280;24660;43.238;26.576;2023-01-28T06:40:59;99147.78;;;0.37;100.00
38900;BME280;24660;43.238;26.576;2023-01-28T06:43:24;99144.59;;;-0.10;100.00
38900;BME280;24660;43.238;26.576;2023-01-28T06:45:52;99155.69;;;-0.04;100.00
38900;BME280;24660;43.238;26.576;2023-01-28T06:48:18;99149.78;;;-0.09;100.00
38900;BME280;24660;43.238;26.576;2023-01-28T06:50:45;99159.91;;;0.01;100.00
38900;BME280;24660;43.238;26.576;2023-01-28T06:53:11;99159.34;;;0.13;100.00
38900;BME280;24660;43.238;26.576;2023-01-28T06:55:36;99158.72;;;0.08;100.00
38900;BME280;24660;43.238;26.576;2023-01-28T06:58:01;99165.78;;;-0.15;100.00
38900;BME280;24660;43.238;26.576;2023-01-28T07:00:26;99165.81;;;0.06;100.00
38900;BME280;24660;43.238;26.576;2023-01-28T07:02:54;99165.75;;;-0.35;100.00
38900;BME280;24660;43.238;26.576;2023-01-28T07:05:19;99170.59;;;-0.24;100.00
38900;BME280;24660;43.238;26.576;2023-01-28T07:07:44;99188.25;;;-0.08;100.00
38900;BME280;24660;43.238;26.576;2023-01-28T07:10:10;99179.72;;;-0.13;100.00
38900;BME280;24660;43.238;26.576;2023-01-28T07:12:35;99186.56;;;0.12;100.00
38900;BME280;24660;43.238;26.576;2023-01-28T07:15:01;99179.00;;;0.04;100.00
38900;BME280;24660;43.238;26.576;2023-01-28T07:17:26;99182.81;;;0.17;100.00
38900;BME280;24660;43.238;26.576;2023-01-28T07:19:51;99185.69;;;0.11;100.00
38900;BME280;24660;43.238;26.576;2023-01-28T07:22:16;99193.06;;;0.23;100.00
38900;BME280;24660;43.238;26.576;2023-01-28T07:24:42;99200.53;;;0.12;100.00
38900;BME280;24660;43.238;26.576;2023-01-28T07:27:07;99203.50;;;0.25;100.00
38900;BME280;24660;43.238;26.576;2023-01-28T07:29:32;99201.13;;;0.39;100.00
38900;BME280;24660;43.238;26.576;2023-01-28T07:31:58;99198.13;;;0.28;100.00
38900;BME280;24660;43.238;26.576;2023-01-28T07:34:23;99196.47;;;0.05;100.00
38900;BME280;24660;43.238;26.576;2023-01-28T07:36:49;99201.19;;;-0.03;100.00
38900;BME280;24660;43.238;26.576;2023-01-28T07:39:14;99197.31;;;-0.58;100.00
38900;BME280;24660;43.238;26.576;2023-01-28T07:41:39;99203.41;;;-0.14;100.00
38900;BME280;24660;43.238;26.576;2023-01-28T07:44:05;99210.47;;;0.06;100.00
38900;BME280;24660;43.238;26.576;2023-01-28T07:46:30;99215.38;;;-0.07;100.00
38900;BME280;24660;43.238;26.576;2023-01-28T07:48:56;99209.84;;;-0.21;100.00
38900;BME280;24660;43.238;26.576;2023-01-28T07:51:21;99214.69;;;0.10;100.00
38900;BME280;24660;43.238;26.576;2023-01-28T07:53:47;99217.50;;;0.05;100.00
38900;BME280;24660;43.238;26.576;2023-01-28T07:56:12;99220.84;;;0.09;100.00
38900;BME280;24660;43.238;26.576;2023-01-28T07:58:37;99217.88;;;-0.04;100.00
38900;BME280;24660;43.238;26.576;2023-01-28T08:01:04;99222.03;;;0.02;100.00
38900;BME280;24660;43.238;26.576;2023-01-28T08:03:29;99222.56;;;0.10;100.00
38900;BME280;24660;43.238;26.576;2023-01-28T08:05:55;99216.59;;;0.26;100.00
38900;BME280;24660;43.238;26.576;2023-01-28T08:08:21;99222.91;;;0.02;100.00
38900;BME280;24660;43.238;26.576;2023-01-28T08:10:47;99230.19;;;0.16;100.00
38900;BME280;24660;43.238;26.576;2023-01-28T08:13:13;99228.38;;;-0.04;100.00
38900;BME280;24660;43.238;26.576;2023-01-28T08:15:39;99233.28;;;0.25;100.00
38900;BME280;24660;43.238;26.576;2023-01-28T08:18:06;99232.13;;;-0.10;100.00
38900;BME280;24660;43.238;26.576;2023-01-28T08:20:31;99248.75;;;0.33;100.00
38900;BME280;24660;43.238;26.576;2023-01-28T08:25:37;99255.72;;;0.12;100.00
38900;BME280;24660;43.238;26.576;2023-01-28T08:28:03;99251.16;;;0.17;100.00
38900;BME280;24660;43.238;26.576;2023-01-28T08:30:29;99244.72;;;0.24;100.00
38900;BME280;24660;43.238;26.576;2023-01-28T08:32:55;99245.16;;;0.14;100.00
38900;BME280;24660;43.238;26.576;2023-01-28T08:35:21;99244.88;;;-0.01;100.00
38900;BME280;24660;43.238;26.576;2023-01-28T08:37:46;99251.66;;;0.05;100.00
38900;BME280;24660;43.238;26.576;2023-01-28T08:40:11;99247.41;;;0.23;100.00
38900;BME280;24660;43.238;26.576;2023-01-28T08:42:37;99252.88;;;0.18;100.00
38900;BME280;24660;43.238;26.576;2023-01-28T08:45:02;99253.94;;;0.35;100.00
38900;BME280;24660;43.238;26.576;2023-01-28T08:47:28;99244.19;;;0.37;100.00
38900;BME280;24660;43.238;26.576;2023-01-28T08:49:53;99236.84;;;0.45;100.00
38900;BME280;24660;43.238;26.576;2023-01-28T08:52:18;99236.09;;;0.41;100.00
38900;BME280;24660;43.238;26.576;2023-01-28T08:54:43;99226.78;;;0.34;100.00
38900;BME280;24660;43.238;26.576;2023-01-28T08:57:09;99230.00;;;0.41;100.00
38900;BME280;24660;43.238;26.576;2023-01-28T08:59:34;99230.28;;;0.14;100.00
38900;BME280;24660;43.238;26.576;2023-01-28T09:01:59;99236.44;;;0.34;100.00
38900;BME280;24660;43.238;26.576;2023-01-28T09:04:25;99234.25;;;0.64;100.00
38900;BME280;24660;43.238;26.576;2023-01-28T09:06:50;99227.03;;;0.48;100.00
38900;BME280;24660;43.238;26.576;2023-01-28T09:09:15;99227.81;;;0.50;100.00
38900;BME280;24660;43.238;26.576;2023-01-28T09:11:41;99223.09;;;0.18;100.00
38900;BME280;24660;43.238;26.576;2023-01-28T09:14:06;99218.31;;;0.48;100.00
38900;BME280;24660;43.238;26.576;2023-01-28T09:16:31;99220.28;;;0.02;100.00
38900;BME280;24660;43.238;26.576;2023-01-28T09:18:56;99223.81;;;0.62;100.00
38900;BME280;24660;43.238;26.576;2023-01-28T09:21:22;99221.75;;;0.69;100.00
38900;BME280;24660;43.238;26.576;2023-01-28T09:23:47;99223.22;;;0.76;100.00
38900;BME280;24660;43.238;26.576;2023-01-28T09:26:12;99219.19;;;0.67;100.00
38900;BME280;24660;43.238;26.576;2023-01-28T09:28:38;99213.75;;;0.72;100.00
38900;BME280;24660;43.238;26.576;2023-01-28T09:31:05;99205.97;;;0.69;100.00
38900;BME280;24660;43.238;26.576;2023-01-28T09:33:31;99213.59;;;-0.07;100.00
38900;BME280;24660;43.238;26.576;2023-01-28T09:36:00;99205.28;;;0.24;100.00
38900;BME280;24660;43.238;26.576;2023-01-28T09:38:26;99216.91;;;0.59;100.00
38900;BME280;24660;43.238;26.576;2023-01-28T09:40:51;99219.72;;;0.55;100.00
38900;BME280;24660;43.238;26.576;2023-01-28T09:43:28;99219.66;;;0.77;100.00
38900;BME280;24660;43.238;26.576;2023-01-28T09:45:56;99214.91;;;1.04;100.00
38900;BME280;24660;43.238;26.576;2023-01-28T09:48:23;99216.19;;;0.95;100.00
38900;BME280;24660;43.238;26.576;2023-01-28T09:50:54;99215.56;;;1.09;100.00
38900;BME280;24660;43.238;26.576;2023-01-28T09:53:24;99215.19;;;1.35;100.00
38900;BME280;24660;43.238;26.576;2023-01-28T09:55:54;99213.41;;;1.36;100.00
38900;BME280;24660;43.238;26.576;2023-01-28T09:58:19;99206.94;;;1.05;100.00
38900;BME280;24660;43.238;26.576;2023-01-28T10:00:47;99213.34;;;1.37;100.00
38900;BME280;24660;43.238;26.576;2023-01-28T10:10:53;99214.72;;;1.27;100.00
38900;BME280;24660;43.238;26.576;2023-01-28T10:13:23;99216.19;;;1.33;100.00
38900;BME280;24660;43.238;26.576;2023-01-28T10:18:21;99218.97;;;1.48;100.00
38900;BME280;24660;43.238;26.576;2023-01-28T10:20:50;99215.91;;;1.20;100.00
38900;BME280;24660;43.238;26.576;2023-01-28T10:23:21;99217.59;;;1.40;100.00
38900;BME280;24660;43.238;26.576;2023-01-28T10:25:48;99217.47;;;1.43;100.00
38900;BME280;24660;43.238;26.576;2023-01-28T10:28:17;99218.72;;;1.53;100.00
38900;BME280;24660;43.238;26.576;2023-01-28T10:30:43;99216.53;;;1.25;100.00
38900;BME280;24660;43.238;26.576;2023-01-28T10:33:15;99220.09;;;0.86;100.00
38900;BME280;24660;43.238;26.576;2023-01-28T10:35:41;99224.03;;;1.15;100.00
38900;BME280;24660;43.238;26.576;2023-01-28T10:38:09;99227.28;;;1.39;100.00
38900;BME280;24660;43.238;26.576;2023-01-28T10:40:36;99220.69;;;1.31;100.00
38900;BME280;24660;43.238;26.576;2023-01-28T10:43:04;99220.47;;;1.35;100.00
38900;BME280;24660;43.238;26.576;2023-01-28T10:45:31;99217.59;;;1.59;100.00
38900;BME280;24660;43.238;26.576;2023-01-28T10:48:00;99220.00;;;1.63;100.00
38900;BME280;24660;43.238;26.576;2023-01-28T10:50:26;99229.53;;;1.66;100.00
38900;BME280;24660;43.238;26.576;2023-01-28T10:55:18;99216.25;;;1.50;100.00
38900;BME280;24660;43.238;26.576;2023-01-28T10:57:44;99215.16;;;1.54;100.00
38900;BME280;24660;43.238;26.576;2023-01-28T11:00:11;99223.41;;;1.65;100.00
38900;BME280;24660;43.238;26.576;2023-01-28T11:02:37;99230.78;;;1.40;100.00
38900;BME280;24660;43.238;26.576;2023-01-28T11:05:05;99224.50;;;1.61;100.00
38900;BME280;24660;43.238;26.576;2023-01-28T11:07:31;99222.69;;;1.44;100.00
38900;BME280;24660;43.238;26.576;2023-01-28T11:09:57;99222.88;;;1.40;100.00
38900;BME280;24660;43.238;26.576;2023-01-28T11:12:23;99220.91;;;1.45;100.00
38900;BME280;24660;43.238;26.576;2023-01-28T11:14:55;99222.66;;;1.26;100.00
38900;BME280;24660;43.238;26.576;2023-01-28T11:17:21;99222.16;;;1.36;100.00
38900;BME280;24660;43.238;26.576;2023-01-28T11:19:48;99222.31;;;1.33;100.00
38900;BME280;24660;43.238;26.576;2023-01-28T11:22:20;99220.19;;;1.41;100.00
38900;BME280;24660;43.238;26.576;2023-01-28T11:24:47;99225.22;;;1.46;100.00
38900;BME280;24660;43.238;26.576;2023-01-28T11:27:15;99223.13;;;1.71;100.00
38900;BME280;24660;43.238;26.576;2023-01-28T11:29:42;99214.06;;;1.77;100.00
38900;BME280;24660;43.238;26.576;2023-01-28T11:34:49;99203.72;;;1.91;100.00
38900;BME280;24660;43.238;26.576;2023-01-28T11:37:15;99215.09;;;1.74;100.00
38900;BME280;24660;43.238;26.576;2023-01-28T11:39:40;99210.41;;;1.62;100.00
38900;BME280;24660;43.238;26.576;2023-01-28T11:44:47;99206.38;;;1.55;100.00
38900;BME280;24660;43.238;26.576;2023-01-28T11:47:15;99212.53;;;1.54;100.00
38900;BME280;24660;43.238;26.576;2023-01-28T11:49:49;99220.31;;;1.57;100.00
38900;BME280;24660;43.238;26.576;2023-01-28T11:57:20;99215.81;;;1.40;100.00
38900;BME280;24660;43.238;26.576;2023-01-28T12:02:39;99218.81;;;1.52;100.00
38900;BME280;24660;43.238;26.576;2023-01-28T12:25:52;99219.47;;;1.57;100.00
38900;BME280;24660;43.238;26.576;2023-01-28T12:28:07;99221.16;;;1.94;100.00
38900;BME280;24660;43.238;26.576;2023-01-28T12:36:20;99209.72;;;1.76;100.00
38900;BME280;24660;43.238;26.576;2023-01-28T12:41:14;99212.59;;;1.71;100.00
38900;BME280;24660;43.238;26.576;2023-01-28T12:43:42;99217.09;;;1.69;100.00
38900;BME280;24660;43.238;26.576;2023-01-28T12:48:51;99234.72;;;1.67;100.00
38900;BME280;24660;43.238;26.576;2023-01-28T12:51:20;99227.81;;;1.84;100.00
38900;BME280;24660;43.238;26.576;2023-01-28T12:53:50;99231.06;;;1.89;100.00
38900;BME280;24660;43.238;26.576;2023-01-28T12:56:18;99244.34;;;1.68;100.00
38900;BME280;24660;43.238;26.576;2023-01-28T12:58:48;99250.34;;;1.72;100.00
38900;BME280;24660;43.238;26.576;2023-01-28T13:01:17;99243.63;;;1.65;100.00
38900;BME280;24660;43.238;26.576;2023-01-28T13:06:14;99251.78;;;1.41;100.00
38900;BME280;24660;43.238;26.576;2023-01-28T13:08:43;99255.78;;;1.31;100.00
38900;BME280;24660;43.238;26.576;2023-01-28T13:11:11;99255.41;;;1.39;100.00
38900;BME280;24660;43.238;26.576;2023-01-28T13:13:39;99259.03;;;1.36;100.00
38900;BME280;24660;43.238;26.576;2023-01-28T13:16:07;99260.56;;;1.42;100.00
38900;BME280;24660;43.238;26.576;2023-01-28T13:18:42;99264.50;;;1.51;100.00
38900;BME280;24660;43.238;26.576;2023-01-28T13:21:11;99264.88;;;1.43;100.00
38900;BME280;24660;43.238;26.576;2023-01-28T13:28:44;99281.53;;;1.43;100.00
38900;BME280;24660;43.238;26.576;2023-01-28T13:31:11;99284.50;;;1.55;100.00
38900;BME280;24660;43.238;26.576;2023-01-28T13:33:41;99274.41;;;1.64;100.00
38900;BME280;24660;43.238;26.576;2023-01-28T13:36:21;99285.72;;;1.66;100.00
38900;BME280;24660;43.238;26.576;2023-01-28T13:38:48;99281.94;;;1.53;100.00
38900;BME280;24660;43.238;26.576;2023-01-28T13:41:35;99285.59;;;1.51;100.00
38900;BME280;24660;43.238;26.576;2023-01-28T13:44:00;99287.59;;;1.45;100.00
38900;BME280;24660;43.238;26.576;2023-01-28T13:46:26;99293.84;;;1.43;100.00
38900;BME280;24660;43.238;26.576;2023-01-28T13:48:53;99292.28;;;1.58;100.00
38900;BME280;24660;43.238;26.576;2023-01-28T13:51:21;99291.34;;;1.77;100.00
38900;BME280;24660;43.238;26.576;2023-01-28T13:56:18;99291.94;;;1.28;100.00
38900;BME280;24660;43.238;26.576;2023-01-28T14:01:30;99299.09;;;1.24;100.00
38900;BME280;24660;43.238;26.576;2023-01-28T14:07:01;99302.50;;;1.07;100.00
38900;BME280;24660;43.238;26.576;2023-01-28T14:09:26;99307.72;;;1.28;100.00
38900;BME280;24660;43.238;26.576;2023-01-28T14:14:40;99307.34;;;0.96;100.00
38900;BME280;24660;43.238;26.576;2023-01-28T14:19:52;99316.78;;;1.41;100.00
38900;BME280;24660;43.238;26.576;2023-01-28T14:22:18;99316.72;;;1.42;100.00
38900;BME280;24660;43.238;26.576;2023-01-28T14:24:44;99317.25;;;1.49;100.00